Latest Weather Observations for Lake Macquarie - Cooranbong

IDN60801

Issued at 8:03 pm EST Friday 29 July 2016 (issued every 30 minutes, with the page automatically refreshed every 10 minutes)

About weather observations | Map of weather stations | Latest weather observations for NSW | Other Formats
Station Details ID: 061412 Name: LAKE MACQUARIE AWS Lat: -33.09 Lon: 151.46 Height: 6.0 m
Data from the previous 72 hours. | See also: Recent months at Lake Macquarie - Cooranbong
Date/Time
EST
Temp
°C
App
Temp
°C
Dew
Point
°C
Rel
Hum
%
Delta-T
°C
Wind Press
QNH
hPa
Press
MSL
hPa
Rain since
9am
mm
Dir  Spd
km/h
Gust
km/h
Spd
kts
Gust
kts
29/08:00pm 10.1 8.0 6.6 79 1.6 NW 7 13 4 7 1019.8 1019.8 0.0
29/07:30pm 6.9 5.4 5.2 89 0.7 NW 2 7 1 4 1019.8 1019.8 0.0
29/07:00pm 8.1 7.2 5.9 86 1.0 CALM 0 0 0 0 1019.7 1019.7 0.0
29/06:30pm 8.5 7.5 5.8 83 1.2 CALM 0 0 0 0 1019.2 1019.2 0.0
29/06:00pm 9.1 7.7 5.7 79 1.5 NNW 2 2 1 1 1018.9 1018.9 0.0
29/05:30pm 11.2 10.3 5.9 70 2.5 CALM 0 0 0 0 1018.6 1018.6 0.0
29/05:00pm 13.9 12.0 4.8 54 4.2 N 4 7 2 4 1018.4 1018.4 0.0
29/04:30pm 17.6 15.4 3.1 38 6.7 WNW 4 4 2 2 1018.3 1018.3 0.0
29/04:00pm 17.8 15.1 2.5 36 7.0 NW 6 9 3 5 1018.0 1018.0 0.0
29/03:30pm 18.4 14.9 1.4 32 7.6 WNW 9 15 5 8 1018.1 1018.1 0.0
29/03:00pm 18.2 15.3 2.5 35 7.2 NNW 7 15 4 8 1018.3 1018.3 0.0
29/02:30pm 18.3 15.3 2.2 34 7.3 NW 7 13 4 7 1018.4 1018.4 0.0
29/02:00pm 18.0 14.7 2.7 36 7.0 NNW 9 15 5 8 1018.5 1018.5 0.0
29/01:30pm 17.8 14.5 2.2 35 7.1 N 9 17 5 9 1018.8 1018.8 0.0
29/01:00pm 17.7 14.2 1.2 33 7.3 NNW 9 17 5 9 1019.2 1019.2 0.0
29/12:30pm 17.1 14.0 3.4 40 6.3 NW 9 15 5 8 1019.8 1019.8 0.0
29/12:00pm 16.3 13.6 3.7 43 5.8 NNW 7 13 4 7 1020.6 1020.6 0.0
29/11:30am 16.1 13.3 2.9 41 6.0 NNW 7 15 4 8 1021.3 1021.3 0.0
29/11:00am 15.0 11.5 1.5 40 5.9 NW 9 17 5 9 1022.0 1022.0 0.0
29/10:30am 14.6 11.7 2.8 45 5.3 NW 7 13 4 7 1022.6 1022.6 0.0
29/10:00am 13.8 11.0 3.3 49 4.7 NW 7 13 4 7 1023.0 1023.0 0.0
29/09:30am 11.7 10.9 6.6 71 2.4 CALM 0 0 0 0 1023.2 1023.2 0.0
29/09:00am 8.2 7.6 7.6 96 0.3 CALM 0 0 0 0 1023.3 1023.3 0.0
29/08:30am 5.5 4.4 5.1 97 0.2 CALM 0 0 0 0 1023.3 1023.3 0.0
29/08:00am 1.6 -0.2 1.0 96 0.2 CALM 0 0 0 0 1023.5 1023.5 0.0
29/07:30am 0.0 -2.1 -0.7 95 0.2 CALM 0 0 0 0 1023.2 1023.2 0.0
29/07:00am -0.1 -2.2 -0.8 95 0.2 CALM 0 0 0 0 1023.2 1023.2 0.0
29/06:30am 0.2 -1.9 -0.5 95 0.3 CALM 0 0 0 0 1023.1 1023.1 0.0
29/06:00am 0.3 -1.7 -0.4 95 0.2 CALM 0 0 0 0 1022.9 1022.9 0.0
29/05:30am 0.4 -1.6 -0.3 95 0.2 CALM 0 0 0 0 1022.7 1022.7 0.0
29/05:00am 0.7 -1.3 0.0 95 0.3 CALM 0 0 0 0 1022.7 1022.7 0.0
29/04:30am 1.0 -0.9 0.3 95 0.3 CALM 0 0 0 0 1022.5 1022.5 0.0
29/04:00am 1.3 -0.6 0.6 95 0.3 CALM 0 0 0 0 1022.4 1022.4 0.0
29/03:30am 1.7 -0.1 1.0 95 0.3 CALM 0 0 0 0 1022.4 1022.4 0.0
29/03:00am 1.9 0.1 1.2 95 0.3 CALM 0 0 0 0 1022.5 1022.5 0.0
29/02:30am 2.3 0.5 1.4 94 0.3 CALM 0 0 0 0 1022.7 1022.7 0.0
29/02:00am 2.6 0.9 1.7 94 0.3 CALM 0 0 0 0 1022.7 1022.7 0.0
29/01:30am 2.9 1.2 2.0 94 0.4 CALM 0 0 0 0 1022.7 1022.7 0.0
29/01:00am 3.4 1.8 2.5 94 0.4 CALM 0 0 0 0 1022.9 1022.9 0.0
29/12:30am 4.0 2.5 3.1 94 0.4 CALM 0 0 0 0 1023.1 1023.1 0.0
29/12:00am 4.3 2.9 3.3 93 0.4 CALM 0 0 0 0 1023.1 1023.1 0.0
 
Date/Time
EST
Temp
°C
App
Temp
°C
Dew
Point
°C
Rel
Hum
%
Delta-T
°C
Wind Press
QNH
hPa
Press
MSL
hPa
Rain since
9am
mm
Dir  Spd
km/h
Gust
km/h
Spd
kts
Gust
kts
28/11:30pm 4.5 3.1 3.5 93 0.4 CALM 0 4 0 2 1023.2 1023.2 0.0
28/11:00pm 4.8 3.4 3.8 93 0.4 CALM 0 0 0 0 1023.2 1023.2 0.0
28/10:30pm 5.5 4.3 4.5 93 0.4 CALM 0 0 0 0 1023.1 1023.1 0.0
28/10:00pm 6.1 5.0 4.9 92 0.5 CALM 0 0 0 0 1022.9 1022.9 0.0
28/09:30pm 6.6 5.6 5.4 92 0.5 CALM 0 0 0 0 1022.8 1022.8 0.0
28/09:00pm 6.7 5.6 5.3 91 0.6 CALM 0 0 0 0 1022.7 1022.7 0.0
28/08:30pm 7.5 6.6 6.0 90 0.7 CALM 0 0 0 0 1022.6 1022.6 0.0
28/08:00pm 8.0 7.1 6.1 88 0.9 CALM 0 0 0 0 1022.4 1022.4 0.0
28/07:30pm 8.6 7.8 6.6 87 0.9 CALM 0 0 0 0 1022.3 1022.3 0.0
28/07:00pm 9.3 8.5 6.6 83 1.2 CALM 0 0 0 0 1022.1 1022.1 0.0
28/06:30pm 10.2 9.3 6.0 75 1.9 CALM 0 2 0 1 1021.7 1021.7 0.0
28/06:00pm 12.1 10.9 6.4 68 2.7 NNW 2 6 1 3 1021.5 1021.5 0.0
28/05:30pm 14.0 12.6 5.6 57 4.0 NNW 2 6 1 3 1021.3 1021.3 0.0
28/05:00pm 16.0 14.1 4.7 47 5.3 NNW 4 9 2 5 1021.2 1021.2 0.0
28/04:30pm 17.2 14.9 4.9 44 5.9 N 6 9 3 5 1020.9 1020.9 0.0
28/04:00pm 18.7 16.2 3.7 37 7.0 NW 6 9 3 5 1020.9 1020.9 0.0
28/03:30pm 18.9 16.2 2.7 34 7.5 NNW 6 9 3 5 1021.0 1021.0 0.0
28/03:00pm 19.0 15.8 2.8 34 7.5 NW 9 15 5 8 1021.2 1021.2 0.0
28/02:30pm 18.4 15.0 1.9 33 7.5 NNW 9 13 5 7 1021.4 1021.4 0.0
28/02:00pm 18.7 15.9 2.1 33 7.5 NW 6 17 3 9 1021.6 1021.6 0.0
28/01:30pm 17.9 14.5 1.8 34 7.2 NNW 9 15 5 8 1022.0 1022.0 0.0
28/01:00pm 17.5 14.0 1.1 33 7.2 WNW 9 15 5 8 1022.4 1022.4 0.0
28/12:30pm 17.0 13.1 1.0 34 7.0 N 11 17 6 9 1022.8 1022.8 0.0
28/12:00pm 17.4 14.8 3.0 38 6.6 NW 6 11 3 6 1023.2 1023.2 0.0
28/11:30am 16.9 14.7 3.6 41 6.2 NNW 4 9 2 5 1023.9 1023.9 0.0
28/11:00am 16.2 13.2 3.9 44 5.7 NNW 9 17 5 9 1024.4 1024.4 0.0
28/10:30am 15.4 12.3 3.5 45 5.4 NNW 9 17 5 9 1024.6 1024.6 0.0
28/10:00am 14.8 11.7 3.6 47 5.1 NNW 9 15 5 8 1024.8 1024.8 0.0
28/09:30am 14.4 11.4 4.1 50 4.7 NW 9 15 5 8 1024.9 1024.9 0.0
28/09:00am 13.7 11.1 4.3 53 4.3 NW 7 13 4 7 1024.7 1024.7 0.0
28/08:30am 12.4 10.2 5.1 61 3.4 NW 6 9 3 5 1024.4 1024.4 0.0
28/08:00am 8.1 6.8 6.2 88 0.9 NNW 2 4 1 2 1024.1 1024.1 0.0
28/07:30am 5.5 3.7 3.2 85 1.0 NW 2 6 1 3 1023.7 1023.7 0.0
28/07:00am 5.9 3.5 2.4 78 1.4 N 4 7 2 4 1023.4 1023.4 0.0
28/06:30am 7.5 4.8 3.6 76 1.7 NNW 7 13 4 7 1022.9 1022.9 0.0
28/06:00am 5.8 3.9 2.6 80 1.3 NNW 2 6 1 3 1022.8 1022.8 0.0
28/05:30am 8.1 5.8 3.0 70 2.2 NNW 4 7 2 4 1022.3 1022.3 0.0
28/05:00am 8.4 6.4 4.2 75 1.8 WNW 4 7 2 4 1021.8 1021.8 0.0
28/04:30am 5.4 3.7 3.9 90 0.6 NW 2 9 1 5 1021.5 1021.5 0.0
28/04:00am 3.9 1.9 2.4 90 0.6 NNE 2 6 1 3 1021.5 1021.5 0.0
28/03:30am 4.4 2.1 2.9 90 0.6 WNW 4 6 2 3 1021.5 1021.5 0.0
28/03:00am 4.6 3.1 3.1 90 0.6 CALM 0 0 0 0 1021.8 1021.8 0.0
28/02:30am 4.5 3.0 2.8 89 0.7 CALM 0 0 0 0 1021.8 1021.8 0.0
28/02:00am 5.0 3.5 3.2 88 0.7 CALM 0 6 0 3 1022.1 1022.1 0.0
28/01:30am 5.1 3.2 2.8 85 0.9 NW 2 6 1 3 1022.1 1022.1 0.0
28/01:00am 5.2 3.7 3.1 86 0.9 CALM 0 0 0 0 1021.8 1021.8 0.0
28/12:30am 5.8 4.4 3.6 86 0.9 CALM 0 0 0 0 1021.6 1021.6 0.0
28/12:00am 6.3 5.0 4.0 85 1.0 CALM 0 6 0 3 1021.2 1021.2 0.0
 
Date/Time
EST
Temp
°C
App
Temp
°C
Dew
Point
°C
Rel
Hum
%
Delta-T
°C
Wind Press
QNH
hPa
Press
MSL
hPa
Rain since
9am
mm
Dir  Spd
km/h
Gust
km/h
Spd
kts
Gust
kts
27/11:30pm 6.9 4.8 3.9 81 1.3 N 4 7 2 4 1021.1 1021.1 0.0
27/11:00pm 6.9 5.5 3.5 79 1.4 CALM 0 0 0 0 1021.0 1021.0 0.0
27/10:30pm 7.9 6.5 3.6 74 1.8 CALM 0 0 0 0 1020.6 1020.6 0.0
27/10:00pm 9.1 7.3 3.7 69 2.3 NW 2 7 1 4 1020.5 1020.5 0.0
27/09:30pm 10.0 7.8 3.1 62 3.0 NW 4 7 2 4 1020.5 1020.5 0.0
27/09:00pm 13.0 10.6 2.0 47 4.7 WNW 4 7 2 4 1020.2 1020.2 0.0
27/08:30pm 13.1 10.3 2.1 47 4.8 NW 6 17 3 9 1019.9 1019.9 0.0
27/08:00pm 13.4 10.6 2.3 47 4.8 NW 6 9 3 5 1019.5 1019.5 0.0
27/07:30pm 14.1 11.2 2.4 45 5.2 W 7 15 4 8 1019.0 1019.0 0.0
27/07:00pm 14.1 11.6 1.7 43 5.4 NW 4 9 2 5 1018.4 1018.4 0.0
27/06:30pm 14.7 11.8 1.3 40 5.8 WNW 6 13 3 7 1017.8 1017.8 0.0
27/06:00pm 15.0 11.9 1.2 39 6.0 WNW 7 13 4 7 1017.2 1017.2 0.0
27/05:30pm 15.7 12.5 0.7 36 6.5 WNW 7 19 4 10 1016.7 1016.7 0.0
27/05:00pm 16.5 11.7 0.2 33 7.0 W 15 26 8 14 1016.0 1016.0 0.0
27/04:30pm 17.5 13.5 0.2 31 7.5 W 11 22 6 12 1015.4 1015.4 0.0
27/04:00pm 18.0 13.1 -0.3 29 7.9 WNW 15 24 8 13 1015.1 1015.1 0.0
27/03:30pm 18.3 13.0 -0.5 28 8.1 W 17 28 9 15 1014.8 1014.8 0.0
27/03:00pm 18.4 12.7 -0.9 27 8.2 WNW 19 35 10 19 1014.3 1014.3 0.0
27/02:30pm 18.5 12.9 -0.3 28 8.1 W 19 33 10 18 1014.0 1014.0 0.0
27/02:00pm 18.4 13.0 1.0 31 7.7 WSW 19 30 10 16 1014.0 1014.0 0.0
27/01:30pm 18.1 11.7 1.2 32 7.5 W 24 43 13 23 1013.4 1013.4 0.0
27/01:00pm 18.5 12.7 2.4 34 7.4 WNW 22 43 12 23 1013.0 1013.0 0.0
27/12:30pm 18.6 13.8 2.4 34 7.4 WNW 17 37 9 20 1013.4 1013.4 0.0
27/12:00pm 18.7 14.5 3.7 37 7.1 NW 15 32 8 17 1013.3 1013.3 0.0
27/11:30am 18.2 13.7 4.0 39 6.7 NW 17 37 9 20 1013.5 1013.5 0.0
27/11:00am 17.6 14.0 4.9 43 6.1 NW 13 24 7 13 1013.7 1013.7 0.0
27/10:30am 17.0 12.3 5.0 45 5.7 NW 19 41 10 22 1013.5 1013.5 0.0
27/10:00am 16.2 10.9 4.9 47 5.3 NW 22 41 12 22 1013.8 1013.8 0.0
27/09:30am 15.7 11.4 5.3 50 4.9 NW 17 32 9 17 1013.6 1013.6 0.0
27/09:00am 15.1 11.1 5.0 51 4.7 NW 15 28 8 15 1013.8 1013.8 0.0
27/08:30am 14.4 10.4 5.0 53 4.4 NW 15 30 8 16 1014.0 1014.0 0.0
27/08:00am 13.8 10.2 5.2 56 4.0 NW 13 26 7 14 1014.0 1014.0 0.0
27/07:30am 12.9 10.4 4.8 58 3.7 NW 7 20 4 11 1014.0 1014.0 0.0
27/07:00am 12.8 10.0 5.0 59 3.6 NW 9 24 5 13 1013.9 1013.9 0.0
27/06:30am 12.5 10.0 5.0 60 3.5 NW 7 13 4 7 1013.7 1013.7 0.0
27/06:00am 12.2 9.8 5.1 62 3.3 NNW 7 19 4 10 1013.8 1013.8 0.0
27/05:30am 11.3 9.1 5.2 66 2.8 NW 6 17 3 9 1013.7 1013.7 0.0
27/05:00am 8.7 7.3 5.3 79 1.5 N 2 6 1 3 1013.4 1013.4 0.0
27/04:30am 7.3 5.3 4.6 83 1.2 N 4 6 2 3 1013.4 1013.4 0.0
27/04:00am 9.5 7.4 6.0 79 1.6 N 6 13 3 7 1013.5 1013.5 0.0
27/03:30am 8.3 6.7 6.3 87 0.9 NNW 4 9 2 5 1014.0 1014.0 0.0
27/03:00am 7.8 7.1 6.9 94 0.4 CALM 0 4 0 2 1014.2 1014.2 0.0
27/02:30am 6.5 5.5 5.6 94 0.4 CALM 0 0 0 0 1014.5 1014.5 0.0
27/02:00am 6.2 5.1 5.2 93 0.4 CALM 0 6 0 3 1014.6 1014.6 0.0
27/01:30am 6.2 5.1 5.0 92 0.5 CALM 0 0 0 0 1014.9 1014.9 0.0
27/01:00am 6.4 4.9 5.0 91 0.6 WNW 2 4 1 2 1014.9 1014.9 0.0
27/12:30am 6.9 5.9 5.4 90 0.7 CALM 0 0 0 0 1015.2 1015.2 0.0
27/12:00am 7.5 6.1 5.6 88 0.8 NNW 2 4 1 2 1015.4 1015.4 0.0
 
Date/Time
EST
Temp
°C
App
Temp
°C
Dew
Point
°C
Rel
Hum
%
Delta-T
°C
Wind Press
QNH
hPa
Press
MSL
hPa
Rain since
9am
mm
Dir  Spd
km/h
Gust
km/h
Spd
kts
Gust
kts
26/11:30pm 8.5 7.7 6.6 88 0.9 CALM 0 0 0 0 1015.6 1015.6 0.0
26/11:00pm 8.9 8.1 6.7 86 1.0 CALM 0 0 0 0 1015.7 1015.7 0.0
26/10:30pm 9.4 8.7 7.0 85 1.1 CALM 0 0 0 0 1015.7 1015.7 0.0
26/10:00pm 9.5 8.8 7.1 85 1.1 CALM 0 6 0 3 1015.8 1015.8 0.0
26/09:30pm 9.3 8.6 6.9 85 1.1 CALM 0 0 0 0 1015.8 1015.8 0.0
26/09:00pm 8.9 8.2 6.9 87 0.9 CALM 0 0 0 0 1015.8 1015.8 0.0
26/08:30pm 8.5 7.7 6.3 86 1.0 CALM 0 0 0 0 1015.6 1015.6 0.0

Other Formats:

Comma delimited format used in spreadsheet applications
http://www.bom.gov.au/fwo/IDN60801/IDN60801.95767.axf

JavaScript Object Notation format (JSON) in row-major order
http://www.bom.gov.au/fwo/IDN60801/IDN60801.95767.json